sensor_id;sensor_type;location;lat;lon;timestamp;pressure;altitude;pressure_sealevel;temperature;humidity
43480;BME280;29067;35.492;-97.520;2024-02-21T00:01:21;97200.40;;;20.37;24.98
43480;BME280;29067;35.492;-97.520;2024-02-21T00:03:49;97195.12;;;20.44;25.09
43480;BME280;29067;35.492;-97.520;2024-02-21T00:06:17;97199.89;;;20.53;25.01
43480;BME280;29067;35.492;-97.520;2024-02-21T00:08:44;97206.52;;;21.05;24.72
43480;BME280;29067;35.492;-97.520;2024-02-21T00:11:12;97211.65;;;21.04;24.90
43480;BME280;29067;35.492;-97.520;2024-02-21T00:13:39;97212.76;;;19.45;25.55
43480;BME280;29067;35.492;-97.520;2024-02-21T00:16:07;97218.60;;;20.83;24.71
43480;BME280;29067;35.492;-97.520;2024-02-21T00:18:35;97222.97;;;21.99;24.04
43480;BME280;29067;35.492;-97.520;2024-02-21T00:21:02;97224.71;;;20.61;24.56
43480;BME280;29067;35.492;-97.520;2024-02-21T00:23:31;97227.45;;;21.19;24.41
43480;BME280;29067;35.492;-97.520;2024-02-21T00:25:58;97229.96;;;22.64;23.78
43480;BME280;29067;35.492;-97.520;2024-02-21T00:28:26;97232.40;;;23.03;23.07
43480;BME280;29067;35.492;-97.520;2024-02-21T00:30:53;97233.96;;;23.56;23.09
43480;BME280;29067;35.492;-97.520;2024-02-21T00:33:21;97234.66;;;22.92;23.25
43480;BME280;29067;35.492;-97.520;2024-02-21T00:35:48;97239.21;;;21.80;23.79
43480;BME280;29067;35.492;-97.520;2024-02-21T00:38:16;97243.67;;;22.56;23.77
43480;BME280;29067;35.492;-97.520;2024-02-21T00:40:44;97247.21;;;22.68;23.71
43480;BME280;29067;35.492;-97.520;2024-02-21T00:43:11;97250.20;;;20.53;24.79
43480;BME280;29067;35.492;-97.520;2024-02-21T00:45:39;97251.18;;;22.11;24.04
43480;BME280;29067;35.492;-97.520;2024-02-21T00:48:07;97249.74;;;22.43;24.28
43480;BME280;29067;35.492;-97.520;2024-02-21T00:50:35;97244.01;;;23.76;23.76
43480;BME280;29067;35.492;-97.520;2024-02-21T00:53:03;97242.27;;;23.13;23.96
43480;BME280;29067;35.492;-97.520;2024-02-21T00:55:31;97248.07;;;22.34;24.22
43480;BME280;29067;35.492;-97.520;2024-02-21T00:57:58;97251.36;;;22.76;24.31
43480;BME280;29067;35.492;-97.520;2024-02-21T01:00:27;97252.34;;;21.56;24.52
43480;BME280;29067;35.492;-97.520;2024-02-21T01:02:54;97252.23;;;21.98;24.50
43480;BME280;29067;35.492;-97.520;2024-02-21T01:05:22;97255.81;;;22.47;24.93
43480;BME280;29067;35.492;-97.520;2024-02-21T01:07:49;97260.59;;;22.20;24.37
43480;BME280;29067;35.492;-97.520;2024-02-21T01:10:17;97266.22;;;22.59;24.91
43480;BME280;29067;35.492;-97.520;2024-02-21T01:12:45;97268.35;;;21.51;25.37
43480;BME280;29067;35.492;-97.520;2024-02-21T01:15:13;97271.19;;;21.97;24.91
43480;BME280;29067;35.492;-97.520;2024-02-21T01:17:40;97270.22;;;23.29;24.44
43480;BME280;29067;35.492;-97.520;2024-02-21T01:20:09;97266.56;;;21.50;25.32
43480;BME280;29067;35.492;-97.520;2024-02-21T01:22:37;97266.64;;;20.13;26.22
43480;BME280;29067;35.492;-97.520;2024-02-21T01:25:05;97266.81;;;19.98;26.66
43480;BME280;29067;35.492;-97.520;2024-02-21T01:27:33;97267.90;;;19.98;26.77
43480;BME280;29067;35.492;-97.520;2024-02-21T01:30:00;97265.55;;;21.54;26.06
43480;BME280;29067;35.492;-97.520;2024-02-21T01:32:28;97265.86;;;21.76;26.05
43480;BME280;29067;35.492;-97.520;2024-02-21T01:34:56;97266.94;;;20.40;27.00
43480;BME280;29067;35.492;-97.520;2024-02-21T01:37:23;97266.48;;;21.09;26.87
43480;BME280;29067;35.492;-97.520;2024-02-21T01:39:51;97272.32;;;19.73;27.93
43480;BME280;29067;35.492;-97.520;2024-02-21T01:42:18;97273.61;;;21.10;26.77
43480;BME280;29067;35.492;-97.520;2024-02-21T01:44:46;97279.57;;;19.67;27.76
43480;BME280;29067;35.492;-97.520;2024-02-21T01:47:14;97279.89;;;18.87;28.74
43480;BME280;29067;35.492;-97.520;2024-02-21T01:49:42;97278.58;;;18.85;28.82
43480;BME280;29067;35.492;-97.520;2024-02-21T01:52:11;97280.03;;;19.59;28.60
43480;BME280;29067;35.492;-97.520;2024-02-21T01:54:40;97286.92;;;18.88;29.26
43480;BME280;29067;35.492;-97.520;2024-02-21T01:57:08;97290.17;;;18.57;29.63
43480;BME280;29067;35.492;-97.520;2024-02-21T01:59:36;97292.13;;;19.24;28.70
43480;BME280;29067;35.492;-97.520;2024-02-21T02:02:04;97298.09;;;19.53;28.80
43480;BME280;29067;35.492;-97.520;2024-02-21T02:04:32;97300.62;;;18.97;29.17
43480;BME280;29067;35.492;-97.520;2024-02-21T02:07:03;97310.81;;;17.47;30.01
43480;BME280;29067;35.492;-97.520;2024-02-21T02:09:31;97309.82;;;17.60;29.91
43480;BME280;29067;35.492;-97.520;2024-02-21T02:11:59;97311.70;;;18.21;29.40
43480;BME280;29067;35.492;-97.520;2024-02-21T02:14:27;97298.82;;;19.62;28.49
43480;BME280;29067;35.492;-97.520;2024-02-21T02:16:55;97299.16;;;19.70;28.54
43480;BME280;29067;35.492;-97.520;2024-02-21T02:19:23;97301.79;;;19.47;28.41
43480;BME280;29067;35.492;-97.520;2024-02-21T02:21:53;97304.35;;;19.03;28.59
43480;BME280;29067;35.492;-97.520;2024-02-21T02:24:25;97303.94;;;20.37;28.16
43480;BME280;29067;35.492;-97.520;2024-02-21T02:26:53;97303.23;;;19.58;28.71
43480;BME280;29067;35.492;-97.520;2024-02-21T02:29:20;97300.94;;;18.79;28.90
43480;BME280;29067;35.492;-97.520;2024-02-21T02:31:49;97296.35;;;19.02;29.12
43480;BME280;29067;35.492;-97.520;2024-02-21T02:34:17;97295.36;;;19.69;29.17
43480;BME280;29067;35.492;-97.520;2024-02-21T02:36:45;97300.34;;;19.45;29.77
43480;BME280;29067;35.492;-97.520;2024-02-21T02:39:13;97296.27;;;19.20;29.56
43480;BME280;29067;35.492;-97.520;2024-02-21T02:41:40;97292.35;;;18.87;30.30
43480;BME280;29067;35.492;-97.520;2024-02-21T02:44:09;97297.42;;;17.95;31.95
43480;BME280;29067;35.492;-97.520;2024-02-21T02:46:36;97295.09;;;19.14;30.92
43480;BME280;29067;35.492;-97.520;2024-02-21T02:49:07;97301.31;;;18.79;31.25
43480;BME280;29067;35.492;-97.520;2024-02-21T02:51:35;97299.08;;;18.65;31.20
43480;BME280;29067;35.492;-97.520;2024-02-21T02:54:03;97308.30;;;17.81;32.44
43480;BME280;29067;35.492;-97.520;2024-02-21T02:56:31;97304.76;;;17.25;33.24
43480;BME280;29067;35.492;-97.520;2024-02-21T02:58:59;97304.73;;;17.03;33.57
43480;BME280;29067;35.492;-97.520;2024-02-21T03:01:27;97302.45;;;18.71;32.30
43480;BME280;29067;35.492;-97.520;2024-02-21T03:03:55;97302.70;;;17.98;32.85
43480;BME280;29067;35.492;-97.520;2024-02-21T03:06:23;97305.30;;;17.66;33.10
43480;BME280;29067;35.492;-97.520;2024-02-21T03:08:51;97306.15;;;17.28;33.44
43480;BME280;29067;35.492;-97.520;2024-02-21T03:11:19;97307.07;;;17.31;33.43
43480;BME280;29067;35.492;-97.520;2024-02-21T03:13:46;97307.08;;;16.86;34.29
43480;BME280;29067;35.492;-97.520;2024-02-21T03:16:17;97309.54;;;16.58;34.04
43480;BME280;29067;35.492;-97.520;2024-02-21T03:18:45;97313.09;;;17.02;33.74
43480;BME280;29067;35.492;-97.520;2024-02-21T03:21:13;97314.68;;;16.45;35.05
43480;BME280;29067;35.492;-97.520;2024-02-21T03:23:40;97313.97;;;16.93;34.43
43480;BME280;29067;35.492;-97.520;2024-02-21T03:26:09;97317.41;;;18.04;33.93
43480;BME280;29067;35.492;-97.520;2024-02-21T03:28:36;97315.77;;;16.57;34.81
43480;BME280;29067;35.492;-97.520;2024-02-21T03:31:05;97318.54;;;16.58;34.94
43480;BME280;29067;35.492;-97.520;2024-02-21T03:33:32;97312.44;;;17.18;34.53
43480;BME280;29067;35.492;-97.520;2024-02-21T03:36:00;97315.30;;;17.29;34.48
43480;BME280;29067;35.492;-97.520;2024-02-21T03:38:28;97315.08;;;16.60;34.64
43480;BME280;29067;35.492;-97.520;2024-02-21T03:40:56;97316.86;;;16.94;34.33
43480;BME280;29067;35.492;-97.520;2024-02-21T03:43:23;97320.28;;;16.90;34.44
43480;BME280;29067;35.492;-97.520;2024-02-21T03:45:52;97321.83;;;16.95;34.42
43480;BME280;29067;35.492;-97.520;2024-02-21T03:48:20;97319.83;;;16.80;34.95
43480;BME280;29067;35.492;-97.520;2024-02-21T03:50:48;97319.45;;;15.84;35.38
43480;BME280;29067;35.492;-97.520;2024-02-21T03:53:16;97322.76;;;16.50;35.66
43480;BME280;29067;35.492;-97.520;2024-02-21T03:55:44;97320.22;;;16.35;35.70
43480;BME280;29067;35.492;-97.520;2024-02-21T03:58:12;97320.74;;;17.03;34.83
43480;BME280;29067;35.492;-97.520;2024-02-21T04:00:40;97324.51;;;15.87;36.28
43480;BME280;29067;35.492;-97.520;2024-02-21T04:03:08;97324.29;;;16.06;36.14
43480;BME280;29067;35.492;-97.520;2024-02-21T04:05:35;97321.98;;;16.55;35.63
43480;BME280;29067;35.492;-97.520;2024-02-21T04:08:05;97324.53;;;15.77;36.41
43480;BME280;29067;35.492;-97.520;2024-02-21T04:10:33;97323.73;;;16.03;36.69
43480;BME280;29067;35.492;-97.520;2024-02-21T04:13:02;97320.61;;;16.71;36.11
43480;BME280;29067;35.492;-97.520;2024-02-21T04:15:29;97326.50;;;15.31;37.31
43480;BME280;29067;35.492;-97.520;2024-02-21T04:17:58;97326.35;;;16.17;36.71
43480;BME280;29067;35.492;-97.520;2024-02-21T04:20:25;97328.66;;;15.05;37.71
43480;BME280;29067;35.492;-97.520;2024-02-21T04:22:54;97320.34;;;16.91;36.00
43480;BME280;29067;35.492;-97.520;2024-02-21T04:25:22;97321.26;;;14.87;37.42
43480;BME280;29067;35.492;-97.520;2024-02-21T04:27:49;97320.75;;;15.75;37.03
43480;BME280;29067;35.492;-97.520;2024-02-21T04:30:17;97315.73;;;16.29;36.52
43480;BME280;29067;35.492;-97.520;2024-02-21T04:32:45;97313.72;;;16.26;36.45
43480;BME280;29067;35.492;-97.520;2024-02-21T04:35:13;97316.22;;;15.28;36.83
43480;BME280;29067;35.492;-97.520;2024-02-21T04:37:41;97313.47;;;17.10;36.30
43480;BME280;29067;35.492;-97.520;2024-02-21T04:40:10;97316.69;;;16.08;36.64
43480;BME280;29067;35.492;-97.520;2024-02-21T04:42:38;97312.81;;;16.65;35.78
43480;BME280;29067;35.492;-97.520;2024-02-21T04:45:06;97314.58;;;15.77;36.56
43480;BME280;29067;35.492;-97.520;2024-02-21T04:47:34;97310.27;;;15.48;36.69
43480;BME280;29067;35.492;-97.520;2024-02-21T04:50:02;97309.30;;;15.52;36.57
43480;BME280;29067;35.492;-97.520;2024-02-21T04:52:31;97304.80;;;16.33;36.15
43480;BME280;29067;35.492;-97.520;2024-02-21T04:54:59;97308.84;;;14.80;37.05
43480;BME280;29067;35.492;-97.520;2024-02-21T04:57:27;97303.98;;;15.10;37.22
43480;BME280;29067;35.492;-97.520;2024-02-21T04:59:54;97299.75;;;16.13;36.85
43480;BME280;29067;35.492;-97.520;2024-02-21T05:02:22;97293.99;;;15.72;36.36
43480;BME280;29067;35.492;-97.520;2024-02-21T05:04:51;97288.79;;;15.65;36.77
43480;BME280;29067;35.492;-97.520;2024-02-21T05:07:19;97291.74;;;14.78;37.83
43480;BME280;29067;35.492;-97.520;2024-02-21T05:09:46;97281.83;;;14.86;37.82
43480;BME280;29067;35.492;-97.520;2024-02-21T05:12:15;97276.85;;;15.40;37.27
43480;BME280;29067;35.492;-97.520;2024-02-21T05:14:42;97272.87;;;16.00;36.66
43480;BME280;29067;35.492;-97.520;2024-02-21T05:17:10;97267.62;;;15.22;36.92
43480;BME280;29067;35.492;-97.520;2024-02-21T05:19:38;97268.82;;;14.72;38.22
43480;BME280;29067;35.492;-97.520;2024-02-21T05:22:07;97263.41;;;13.60;39.02
43480;BME280;29067;35.492;-97.520;2024-02-21T05:24:34;97262.72;;;13.27;39.10
43480;BME280;29067;35.492;-97.520;2024-02-21T05:27:02;97262.26;;;13.27;39.22
43480;BME280;29067;35.492;-97.520;2024-02-21T05:29:30;97256.02;;;14.88;38.60
43480;BME280;29067;35.492;-97.520;2024-02-21T05:31:57;97259.55;;;13.63;39.74
43480;BME280;29067;35.492;-97.520;2024-02-21T05:34:26;97258.50;;;13.43;39.67
43480;BME280;29067;35.492;-97.520;2024-02-21T05:36:54;97260.89;;;13.81;39.61
43480;BME280;29067;35.492;-97.520;2024-02-21T05:39:21;97256.69;;;14.15;39.46
43480;BME280;29067;35.492;-97.520;2024-02-21T05:41:49;97249.79;;;14.71;38.95
43480;BME280;29067;35.492;-97.520;2024-02-21T05:44:17;97249.61;;;13.52;40.12
43480;BME280;29067;35.492;-97.520;2024-02-21T05:46:46;97249.77;;;13.40;40.41
43480;BME280;29067;35.492;-97.520;2024-02-21T05:49:14;97250.56;;;13.38;40.41
43480;BME280;29067;35.492;-97.520;2024-02-21T05:51:42;97256.45;;;13.02;40.94
43480;BME280;29067;35.492;-97.520;2024-02-21T05:54:09;97251.31;;;12.99;41.76
43480;BME280;29067;35.492;-97.520;2024-02-21T05:56:37;97252.34;;;12.27;43.10
43480;BME280;29067;35.492;-97.520;2024-02-21T05:59:05;97255.35;;;12.86;42.58
43480;BME280;29067;35.492;-97.520;2024-02-21T06:01:33;97259.40;;;11.67;43.04
43480;BME280;29067;35.492;-97.520;2024-02-21T06:04:01;97251.56;;;12.27;43.56
43480;BME280;29067;35.492;-97.520;2024-02-21T06:06:29;97246.70;;;12.32;43.61
43480;BME280;29067;35.492;-97.520;2024-02-21T06:08:57;97241.92;;;13.10;43.34
43480;BME280;29067;35.492;-97.520;2024-02-21T06:11:25;97237.27;;;13.85;42.08
43480;BME280;29067;35.492;-97.520;2024-02-21T06:13:54;97231.83;;;13.88;42.10
43480;BME280;29067;35.492;-97.520;2024-02-21T06:16:22;97230.86;;;12.93;43.09
43480;BME280;29067;35.492;-97.520;2024-02-21T06:18:50;97232.38;;;11.61;45.23
43480;BME280;29067;35.492;-97.520;2024-02-21T06:21:17;97228.40;;;12.17;44.89
43480;BME280;29067;35.492;-97.520;2024-02-21T06:23:45;97226.19;;;12.20;45.42
43480;BME280;29067;35.492;-97.520;2024-02-21T06:26:13;97219.05;;;12.33;45.59
43480;BME280;29067;35.492;-97.520;2024-02-21T06:28:41;97210.32;;;12.92;44.62
43480;BME280;29067;35.492;-97.520;2024-02-21T06:31:08;97212.13;;;12.51;45.63
43480;BME280;29067;35.492;-97.520;2024-02-21T06:33:37;97207.47;;;12.58;44.36
43480;BME280;29067;35.492;-97.520;2024-02-21T06:36:05;97205.12;;;12.50;44.69
43480;BME280;29067;35.492;-97.520;2024-02-21T06:38:33;97204.78;;;12.38;46.08
43480;BME280;29067;35.492;-97.520;2024-02-21T06:41:01;97199.06;;;12.28;45.81
43480;BME280;29067;35.492;-97.520;2024-02-21T06:43:29;97199.88;;;11.72;46.93
43480;BME280;29067;35.492;-97.520;2024-02-21T06:45:56;97197.75;;;11.25;47.22
43480;BME280;29067;35.492;-97.520;2024-02-21T06:48:24;97205.39;;;11.24;47.74
43480;BME280;29067;35.492;-97.520;2024-02-21T06:50:52;97198.43;;;10.93;48.44
43480;BME280;29067;35.492;-97.520;2024-02-21T06:53:20;97197.91;;;12.26;47.90
43480;BME280;29067;35.492;-97.520;2024-02-21T06:55:48;97195.49;;;11.99;48.43
43480;BME280;29067;35.492;-97.520;2024-02-21T06:58:16;97192.62;;;11.18;49.61
43480;BME280;29067;35.492;-97.520;2024-02-21T07:00:44;97192.43;;;10.86;49.75
43480;BME280;29067;35.492;-97.520;2024-02-21T07:03:11;97193.11;;;11.04;49.51
43480;BME280;29067;35.492;-97.520;2024-02-21T07:05:39;97193.04;;;10.89;49.87
43480;BME280;29067;35.492;-97.520;2024-02-21T07:08:07;97198.72;;;11.17;49.72
43480;BME280;29067;35.492;-97.520;2024-02-21T07:10:35;97192.50;;;11.74;49.58
43480;BME280;29067;35.492;-97.520;2024-02-21T07:13:03;97192.98;;;11.64;50.13
43480;BME280;29067;35.492;-97.520;2024-02-21T07:15:30;97197.33;;;11.39;49.75
43480;BME280;29067;35.492;-97.520;2024-02-21T07:17:58;97198.43;;;11.43;49.93
43480;BME280;29067;35.492;-97.520;2024-02-21T07:20:26;97195.27;;;11.36;50.04
43480;BME280;29067;35.492;-97.520;2024-02-21T07:22:53;97193.55;;;11.85;48.80
43480;BME280;29067;35.492;-97.520;2024-02-21T07:25:21;97187.78;;;12.06;49.24
43480;BME280;29067;35.492;-97.520;2024-02-21T07:27:49;97186.43;;;11.54;49.22
43480;BME280;29067;35.492;-97.520;2024-02-21T07:30:17;97182.17;;;11.61;49.34
43480;BME280;29067;35.492;-97.520;2024-02-21T07:32:44;97176.31;;;12.25;48.36
43480;BME280;29067;35.492;-97.520;2024-02-21T07:35:12;97176.06;;;12.26;48.27
43480;BME280;29067;35.492;-97.520;2024-02-21T07:37:40;97175.19;;;12.22;48.41
43480;BME280;29067;35.492;-97.520;2024-02-21T07:40:13;97173.91;;;10.71;50.53
43480;BME280;29067;35.492;-97.520;2024-02-21T07:42:41;97173.59;;;11.87;49.08
43480;BME280;29067;35.492;-97.520;2024-02-21T07:45:09;97175.57;;;11.00;50.89
43480;BME280;29067;35.492;-97.520;2024-02-21T07:47:37;97165.45;;;10.52;51.70
43480;BME280;29067;35.492;-97.520;2024-02-21T07:50:06;97166.50;;;11.39;50.37
43480;BME280;29067;35.492;-97.520;2024-02-21T07:52:34;97165.54;;;10.46;52.29
43480;BME280;29067;35.492;-97.520;2024-02-21T07:55:01;97159.14;;;10.63;52.06
43480;BME280;29067;35.492;-97.520;2024-02-21T07:57:29;97160.55;;;11.24;51.04
43480;BME280;29067;35.492;-97.520;2024-02-21T07:59:57;97151.45;;;10.71;51.30
43480;BME280;29067;35.492;-97.520;2024-02-21T08:02:25;97151.00;;;10.97;50.69
43480;BME280;29067;35.492;-97.520;2024-02-21T08:04:53;97143.69;;;10.16;51.28
43480;BME280;29067;35.492;-97.520;2024-02-21T08:07:21;97144.26;;;10.19;52.71
43480;BME280;29067;35.492;-97.520;2024-02-21T08:09:49;97143.81;;;9.50;53.11
43480;BME280;29067;35.492;-97.520;2024-02-21T08:12:17;97136.55;;;10.78;52.05
43480;BME280;29067;35.492;-97.520;2024-02-21T08:14:45;97137.28;;;10.62;51.71
43480;BME280;29067;35.492;-97.520;2024-02-21T08:17:13;97131.47;;;10.96;51.84
43480;BME280;29067;35.492;-97.520;2024-02-21T08:19:41;97131.68;;;10.41;52.76
43480;BME280;29067;35.492;-97.520;2024-02-21T08:22:09;97132.65;;;10.46;52.58
43480;BME280;29067;35.492;-97.520;2024-02-21T08:24:37;97123.46;;;10.98;52.08
43480;BME280;29067;35.492;-97.520;2024-02-21T08:27:05;97122.48;;;10.06;53.35
43480;BME280;29067;35.492;-97.520;2024-02-21T08:29:32;97120.40;;;10.43;52.65
43480;BME280;29067;35.492;-97.520;2024-02-21T08:32:00;97121.96;;;10.02;53.22
43480;BME280;29067;35.492;-97.520;2024-02-21T08:34:28;97120.76;;;9.60;54.76
43480;BME280;29067;35.492;-97.520;2024-02-21T08:36:55;97118.19;;;9.60;54.90
43480;BME280;29067;35.492;-97.520;2024-02-21T08:39:23;97111.20;;;9.96;53.90
43480;BME280;29067;35.492;-97.520;2024-02-21T08:41:51;97104.08;;;9.59;54.53
43480;BME280;29067;35.492;-97.520;2024-02-21T08:44:19;97099.30;;;10.52;53.11
43480;BME280;29067;35.492;-97.520;2024-02-21T08:46:47;97100.78;;;9.45;54.77
43480;BME280;29067;35.492;-97.520;2024-02-21T08:49:14;97097.72;;;9.53;55.47
43480;BME280;29067;35.492;-97.520;2024-02-21T08:51:42;97097.91;;;9.15;55.87
43480;BME280;29067;35.492;-97.520;2024-02-21T08:54:10;97096.67;;;9.56;55.21
43480;BME280;29067;35.492;-97.520;2024-02-21T08:56:38;97093.09;;;9.15;55.71
43480;BME280;29067;35.492;-97.520;2024-02-21T08:59:06;97087.22;;;10.76;53.57
43480;BME280;29067;35.492;-97.520;2024-02-21T09:01:34;97082.88;;;10.34;54.88
43480;BME280;29067;35.492;-97.520;2024-02-21T09:04:02;97072.75;;;10.48;53.68
43480;BME280;29067;35.492;-97.520;2024-02-21T09:06:29;97078.71;;;9.30;56.45
43480;BME280;29067;35.492;-97.520;2024-02-21T09:08:57;97077.19;;;8.31;58.17
43480;BME280;29067;35.492;-97.520;2024-02-21T09:11:25;97073.01;;;9.12;56.98
43480;BME280;29067;35.492;-97.520;2024-02-21T09:13:54;97072.80;;;8.74;58.23
43480;BME280;29067;35.492;-97.520;2024-02-21T09:16:22;97072.62;;;8.86;57.93
43480;BME280;29067;35.492;-97.520;2024-02-21T09:18:49;97073.82;;;9.46;56.54
43480;BME280;29067;35.492;-97.520;2024-02-21T09:21:17;97074.94;;;8.42;58.69
43480;BME280;29067;35.492;-97.520;2024-02-21T09:23:45;97079.52;;;8.32;59.15
43480;BME280;29067;35.492;-97.520;2024-02-21T09:26:13;97074.60;;;8.53;59.42
43480;BME280;29067;35.492;-97.520;2024-02-21T09:28:42;97075.61;;;9.25;57.48
43480;BME280;29067;35.492;-97.520;2024-02-21T09:31:10;97079.33;;;8.05;59.22
43480;BME280;29067;35.492;-97.520;2024-02-21T09:33:38;97069.13;;;8.87;59.72
43480;BME280;29067;35.492;-97.520;2024-02-21T09:36:07;97070.98;;;8.21;60.15
43480;BME280;29067;35.492;-97.520;2024-02-21T09:38:35;97065.17;;;7.73;59.55
43480;BME280;29067;35.492;-97.520;2024-02-21T09:41:11;97059.82;;;8.68;58.37
43480;BME280;29067;35.492;-97.520;2024-02-21T09:43:42;97061.29;;;7.67;60.18
43480;BME280;29067;35.492;-97.520;2024-02-21T09:46:15;97055.34;;;8.41;58.98
43480;BME280;29067;35.492;-97.520;2024-02-21T09:48:58;97055.96;;;8.18;59.68
43480;BME280;29067;35.492;-97.520;2024-02-21T09:51:27;97051.18;;;8.54;59.20
43480;BME280;29067;35.492;-97.520;2024-02-21T09:53:57;97047.20;;;8.43;58.84
43480;BME280;29067;35.492;-97.520;2024-02-21T09:56:25;97048.58;;;7.23;60.29
43480;BME280;29067;35.492;-97.520;2024-02-21T09:58:53;97043.38;;;7.47;61.51
43480;BME280;29067;35.492;-97.520;2024-02-21T10:01:21;97042.53;;;8.07;59.86
43480;BME280;29067;35.492;-97.520;2024-02-21T10:03:49;97041.05;;;7.35;61.00
43480;BME280;29067;35.492;-97.520;2024-02-21T10:06:17;97029.69;;;8.00;59.91
43480;BME280;29067;35.492;-97.520;2024-02-21T10:08:52;97027.12;;;7.57;60.87
43480;BME280;29067;35.492;-97.520;2024-02-21T10:11:23;97019.66;;;7.04;61.68
43480;BME280;29067;35.492;-97.520;2024-02-21T10:14:02;97020.81;;;7.22;61.28
43480;BME280;29067;35.492;-97.520;2024-02-21T10:16:30;97013.50;;;8.56;58.69
43480;BME280;29067;35.492;-97.520;2024-02-21T10:18:58;97016.15;;;7.12;61.92
43480;BME280;29067;35.492;-97.520;2024-02-21T10:21:26;97021.43;;;7.40;62.67
43480;BME280;29067;35.492;-97.520;2024-02-21T10:23:54;97016.67;;;8.00;60.49
43480;BME280;29067;35.492;-97.520;2024-02-21T10:26:22;97016.84;;;7.72;60.09
43480;BME280;29067;35.492;-97.520;2024-02-21T10:28:49;97008.16;;;7.92;60.47
43480;BME280;29067;35.492;-97.520;2024-02-21T10:31:26;97015.05;;;7.06;60.99
43480;BME280;29067;35.492;-97.520;2024-02-21T10:33:55;97001.24;;;7.52;60.00
43480;BME280;29067;35.492;-97.520;2024-02-21T10:36:24;97001.76;;;7.17;60.36
43480;BME280;29067;35.492;-97.520;2024-02-21T10:38:53;97004.51;;;7.23;62.18
43480;BME280;29067;35.492;-97.520;2024-02-21T10:41:22;97002.15;;;7.37;61.81
43480;BME280;29067;35.492;-97.520;2024-02-21T10:43:52;96996.50;;;7.41;61.81
43480;BME280;29067;35.492;-97.520;2024-02-21T10:46:21;96990.16;;;7.15;60.44
43480;BME280;29067;35.492;-97.520;2024-02-21T10:48:58;96991.02;;;7.52;61.70
43480;BME280;29067;35.492;-97.520;2024-02-21T10:51:33;96986.85;;;8.12;58.32
43480;BME280;29067;35.492;-97.520;2024-02-21T10:54:21;96986.01;;;8.21;58.11
43480;BME280;29067;35.492;-97.520;2024-02-21T10:56:53;96989.38;;;9.19;55.97
43480;BME280;29067;35.492;-97.520;2024-02-21T10:59:25;96993.31;;;8.35;57.28
43480;BME280;29067;35.492;-97.520;2024-02-21T11:01:53;96988.54;;;8.84;56.40
43480;BME280;29067;35.492;-97.520;2024-02-21T11:04:21;96987.39;;;8.81;55.74
43480;BME280;29067;35.492;-97.520;2024-02-21T11:06:50;96993.00;;;8.75;55.68
43480;BME280;29067;35.492;-97.520;2024-02-21T11:09:18;96991.24;;;8.20;55.46
43480;BME280;29067;35.492;-97.520;2024-02-21T11:11:57;96992.38;;;8.17;56.12
43480;BME280;29067;35.492;-97.520;2024-02-21T11:14:27;96989.72;;;7.21;58.02
43480;BME280;29067;35.492;-97.520;2024-02-21T11:16:55;96989.41;;;8.00;57.27
43480;BME280;29067;35.492;-97.520;2024-02-21T11:19:24;96993.59;;;8.23;56.04
43480;BME280;29067;35.492;-97.520;2024-02-21T11:21:54;96986.64;;;9.39;53.92
43480;BME280;29067;35.492;-97.520;2024-02-21T11:24:31;96985.42;;;9.31;53.15
43480;BME280;29067;35.492;-97.520;2024-02-21T11:27:09;96990.71;;;8.34;54.04
43480;BME280;29067;35.492;-97.520;2024-02-21T11:29:42;96992.75;;;7.92;55.81
43480;BME280;29067;35.492;-97.520;2024-02-21T11:32:11;96994.11;;;7.68;56.01
43480;BME280;29067;35.492;-97.520;2024-02-21T11:34:39;96991.81;;;7.15;56.43
43480;BME280;29067;35.492;-97.520;2024-02-21T11:37:14;96988.55;;;7.01;56.84
43480;BME280;29067;35.492;-97.520;2024-02-21T11:39:42;96983.63;;;7.25;58.10
43480;BME280;29067;35.492;-97.520;2024-02-21T11:42:10;96983.62;;;7.82;57.27
43480;BME280;29067;35.492;-97.520;2024-02-21T11:44:38;96976.58;;;7.98;56.28
43480;BME280;29067;35.492;-97.520;2024-02-21T11:47:08;96981.35;;;7.19;56.52
43480;BME280;29067;35.492;-97.520;2024-02-21T11:49:38;96991.82;;;6.43;57.34
43480;BME280;29067;35.492;-97.520;2024-02-21T11:52:06;96976.90;;;6.43;57.07
43480;BME280;29067;35.492;-97.520;2024-02-21T11:54:34;96969.40;;;7.40;56.64
43480;BME280;29067;35.492;-97.520;2024-02-21T11:57:03;96968.42;;;7.73;55.83
43480;BME280;29067;35.492;-97.520;2024-02-21T11:59:31;96965.34;;;7.11;55.94
43480;BME280;29067;35.492;-97.520;2024-02-21T12:03:01;96966.60;;;7.45;54.55
43480;BME280;29067;35.492;-97.520;2024-02-21T12:05:28;96972.75;;;7.95;54.03
43480;BME280;29067;35.492;-97.520;2024-02-21T12:07:56;96981.40;;;5.93;57.14
43480;BME280;29067;35.492;-97.520;2024-02-21T12:10:26;96985.61;;;6.73;57.59
43480;BME280;29067;35.492;-97.520;2024-02-21T12:13:06;96977.73;;;7.80;54.47
43480;BME280;29067;35.492;-97.520;2024-02-21T12:15:34;96980.65;;;7.27;54.64
43480;BME280;29067;35.492;-97.520;2024-02-21T12:18:03;96984.87;;;6.34;56.03
43480;BME280;29067;35.492;-97.520;2024-02-21T12:20:31;96983.93;;;7.21;54.65
43480;BME280;29067;35.492;-97.520;2024-02-21T12:23:01;96983.25;;;7.51;54.25
43480;BME280;29067;35.492;-97.520;2024-02-21T12:25:29;96988.67;;;7.40;54.05
43480;BME280;29067;35.492;-97.520;2024-02-21T12:27:56;96993.79;;;7.32;53.95
43480;BME280;29067;35.492;-97.520;2024-02-21T12:30:24;97002.94;;;7.05;54.07
43480;BME280;29067;35.492;-97.520;2024-02-21T12:32:52;97006.63;;;6.75;54.61
43480;BME280;29067;35.492;-97.520;2024-02-21T12:35:20;96999.25;;;8.55;52.01
43480;BME280;29067;35.492;-97.520;2024-02-21T12:37:48;97004.50;;;7.44;52.22
43480;BME280;29067;35.492;-97.520;2024-02-21T12:40:16;97009.28;;;6.83;52.35
43480;BME280;29067;35.492;-97.520;2024-02-21T12:42:44;97012.72;;;6.76;54.43
43480;BME280;29067;35.492;-97.520;2024-02-21T12:45:12;97013.01;;;6.94;52.98
43480;BME280;29067;35.492;-97.520;2024-02-21T12:47:40;97012.95;;;6.25;54.17
43480;BME280;29067;35.492;-97.520;2024-02-21T12:50:08;97010.20;;;6.32;53.50